sensor_id;sensor_type;location;lat;lon;timestamp;temperature;humidity
19496;DHT22;9888;48.606;9.630;2022-12-18T00:02:12;-7.80;99.90
19496;DHT22;9888;48.606;9.630;2022-12-18T00:04:39;-7.70;99.90
19496;DHT22;9888;48.606;9.630;2022-12-18T00:07:06;-7.80;99.90
19496;DHT22;9888;48.606;9.630;2022-12-18T00:09:32;-7.90;99.90
19496;DHT22;9888;48.606;9.630;2022-12-18T00:11:59;-7.90;99.90
19496;DHT22;9888;48.606;9.630;2022-12-18T00:14:26;-8.00;99.90
19496;DHT22;9888;48.606;9.630;2022-12-18T00:16:53;-8.10;99.90
19496;DHT22;9888;48.606;9.630;2022-12-18T00:19:21;-8.10;99.90
19496;DHT22;9888;48.606;9.630;2022-12-18T00:21:47;-8.10;99.90
19496;DHT22;9888;48.606;9.630;2022-12-18T00:24:15;-8.00;99.90
19496;DHT22;9888;48.606;9.630;2022-12-18T00:26:41;-8.10;99.90
19496;DHT22;9888;48.606;9.630;2022-12-18T00:29:11;-8.20;99.90
19496;DHT22;9888;48.606;9.630;2022-12-18T00:31:40;-8.20;99.90
19496;DHT22;9888;48.606;9.630;2022-12-18T00:34:10;-8.10;99.90
19496;DHT22;9888;48.606;9.630;2022-12-18T00:36:38;-8.00;99.90
19496;DHT22;9888;48.606;9.630;2022-12-18T00:39:05;-8.10;99.90
19496;DHT22;9888;48.606;9.630;2022-12-18T00:41:32;-8.10;99.90
19496;DHT22;9888;48.606;9.630;2022-12-18T00:44:18;-8.00;99.90
19496;DHT22;9888;48.606;9.630;2022-12-18T00:46:46;-8.00;99.90
19496;DHT22;9888;48.606;9.630;2022-12-18T00:49:15;-8.20;99.90
19496;DHT22;9888;48.606;9.630;2022-12-18T00:51:43;-8.20;99.90
19496;DHT22;9888;48.606;9.630;2022-12-18T00:54:10;-8.30;99.90
19496;DHT22;9888;48.606;9.630;2022-12-18T00:56:38;-8.20;99.90
19496;DHT22;9888;48.606;9.630;2022-12-18T00:59:05;-8.20;99.90
19496;DHT22;9888;48.606;9.630;2022-12-18T01:01:33;-8.20;99.90
19496;DHT22;9888;48.606;9.630;2022-12-18T01:04:02;-8.20;99.90
19496;DHT22;9888;48.606;9.630;2022-12-18T01:06:30;-8.10;99.90
19496;DHT22;9888;48.606;9.630;2022-12-18T01:08:57;-8.10;99.90
19496;DHT22;9888;48.606;9.630;2022-12-18T01:11:24;-8.10;99.90
19496;DHT22;9888;48.606;9.630;2022-12-18T01:13:53;-8.20;99.90
19496;DHT22;9888;48.606;9.630;2022-12-18T01:16:20;-8.20;99.90
19496;DHT22;9888;48.606;9.630;2022-12-18T01:18:47;-8.20;99.90
19496;DHT22;9888;48.606;9.630;2022-12-18T01:21:15;-8.20;99.90
19496;DHT22;9888;48.606;9.630;2022-12-18T01:23:45;-8.30;99.90
19496;DHT22;9888;48.606;9.630;2022-12-18T01:26:14;-8.30;99.90
19496;DHT22;9888;48.606;9.630;2022-12-18T01:28:46;-8.20;99.90
19496;DHT22;9888;48.606;9.630;2022-12-18T01:31:27;-8.20;99.90
19496;DHT22;9888;48.606;9.630;2022-12-18T01:33:56;-8.10;99.90
19496;DHT22;9888;48.606;9.630;2022-12-18T01:36:28;-8.10;99.90
19496;DHT22;9888;48.606;9.630;2022-12-18T01:38:56;-8.10;99.90
19496;DHT22;9888;48.606;9.630;2022-12-18T01:41:26;-8.00;99.90
19496;DHT22;9888;48.606;9.630;2022-12-18T01:47:39;-8.00;99.90
19496;DHT22;9888;48.606;9.630;2022-12-18T01:50:32;-8.00;99.90
19496;DHT22;9888;48.606;9.630;2022-12-18T01:53:07;-7.90;99.90
19496;DHT22;9888;48.606;9.630;2022-12-18T01:55:42;-7.90;99.90
19496;DHT22;9888;48.606;9.630;2022-12-18T01:58:10;-7.90;99.90
19496;DHT22;9888;48.606;9.630;2022-12-18T02:00:37;-7.90;99.90
19496;DHT22;9888;48.606;9.630;2022-12-18T02:03:04;-7.90;99.90
19496;DHT22;9888;48.606;9.630;2022-12-18T02:08:37;-7.90;99.90
19496;DHT22;9888;48.606;9.630;2022-12-18T02:14:16;-8.00;99.90
19496;DHT22;9888;48.606;9.630;2022-12-18T02:16:52;-8.00;99.90
19496;DHT22;9888;48.606;9.630;2022-12-18T02:19:44;-8.00;99.90
19496;DHT22;9888;48.606;9.630;2022-12-18T02:25:28;-8.00;99.90
19496;DHT22;9888;48.606;9.630;2022-12-18T02:28:01;-7.90;99.90
19496;DHT22;9888;48.606;9.630;2022-12-18T02:30:34;-7.90;99.90
19496;DHT22;9888;48.606;9.630;2022-12-18T02:33:05;-7.90;99.90
19496;DHT22;9888;48.606;9.630;2022-12-18T02:35:34;-7.90;99.90
19496;DHT22;9888;48.606;9.630;2022-12-18T02:38:03;-7.90;99.90
19496;DHT22;9888;48.606;9.630;2022-12-18T02:40:30;-7.90;99.90
19496;DHT22;9888;48.606;9.630;2022-12-18T02:43:11;-7.90;99.90
19496;DHT22;9888;48.606;9.630;2022-12-18T02:45:50;-7.90;99.90
19496;DHT22;9888;48.606;9.630;2022-12-18T02:48:21;-7.80;99.90
19496;DHT22;9888;48.606;9.630;2022-12-18T02:51:17;-7.80;99.90
19496;DHT22;9888;48.606;9.630;2022-12-18T02:53:55;-7.80;99.90
19496;DHT22;9888;48.606;9.630;2022-12-18T02:56:38;-7.80;99.90
19496;DHT22;9888;48.606;9.630;2022-12-18T02:59:15;-7.80;99.90
19496;DHT22;9888;48.606;9.630;2022-12-18T03:01:57;-7.80;99.90
19496;DHT22;9888;48.606;9.630;2022-12-18T03:04:47;-7.80;99.90
19496;DHT22;9888;48.606;9.630;2022-12-18T03:07:21;-7.80;99.90
19496;DHT22;9888;48.606;9.630;2022-12-18T03:09:52;-7.80;99.90
19496;DHT22;9888;48.606;9.630;2022-12-18T03:12:34;-7.80;99.90
19496;DHT22;9888;48.606;9.630;2022-12-18T03:15:17;-7.90;99.90
19496;DHT22;9888;48.606;9.630;2022-12-18T03:18:01;-7.80;99.90
19496;DHT22;9888;48.606;9.630;2022-12-18T03:20:31;-7.90;99.90
19496;DHT22;9888;48.606;9.630;2022-12-18T03:23:09;-7.80;99.90
19496;DHT22;9888;48.606;9.630;2022-12-18T03:25:39;-7.80;99.90
19496;DHT22;9888;48.606;9.630;2022-12-18T03:28:09;-7.80;99.90
19496;DHT22;9888;48.606;9.630;2022-12-18T03:30:41;-7.70;99.90
19496;DHT22;9888;48.606;9.630;2022-12-18T03:33:23;-7.80;99.90
19496;DHT22;9888;48.606;9.630;2022-12-18T03:35:50;-7.80;99.90
19496;DHT22;9888;48.606;9.630;2022-12-18T03:38:17;-7.70;99.90
19496;DHT22;9888;48.606;9.630;2022-12-18T03:40:47;-7.70;99.90
19496;DHT22;9888;48.606;9.630;2022-12-18T03:46:59;-7.70;99.90
19496;DHT22;9888;48.606;9.630;2022-12-18T03:49:37;-7.70;99.90
19496;DHT22;9888;48.606;9.630;2022-12-18T03:52:13;-7.70;99.90
19496;DHT22;9888;48.606;9.630;2022-12-18T03:54:45;-7.70;99.90
19496;DHT22;9888;48.606;9.630;2022-12-18T03:57:21;-7.70;99.90
19496;DHT22;9888;48.606;9.630;2022-12-18T03:59:50;-7.80;99.90
19496;DHT22;9888;48.606;9.630;2022-12-18T04:02:18;-7.70;99.90
19496;DHT22;9888;48.606;9.630;2022-12-18T04:04:48;-7.70;99.90
19496;DHT22;9888;48.606;9.630;2022-12-18T04:07:19;-7.70;99.90
19496;DHT22;9888;48.606;9.630;2022-12-18T04:09:48;-7.70;99.90
19496;DHT22;9888;48.606;9.630;2022-12-18T04:12:15;-7.70;99.90
19496;DHT22;9888;48.606;9.630;2022-12-18T04:14:42;-7.70;99.90
19496;DHT22;9888;48.606;9.630;2022-12-18T04:17:08;-7.70;99.90
19496;DHT22;9888;48.606;9.630;2022-12-18T04:19:35;-7.70;99.90
19496;DHT22;9888;48.606;9.630;2022-12-18T04:22:02;-7.60;99.90
19496;DHT22;9888;48.606;9.630;2022-12-18T04:24:29;-7.60;99.90
19496;DHT22;9888;48.606;9.630;2022-12-18T04:26:56;-7.70;99.90
19496;DHT22;9888;48.606;9.630;2022-12-18T04:29:22;-7.60;99.90
19496;DHT22;9888;48.606;9.630;2022-12-18T04:31:50;-7.60;99.90
19496;DHT22;9888;48.606;9.630;2022-12-18T04:34:16;-7.60;99.90
19496;DHT22;9888;48.606;9.630;2022-12-18T04:36:43;-7.60;99.90
19496;DHT22;9888;48.606;9.630;2022-12-18T04:39:10;-7.60;99.90
19496;DHT22;9888;48.606;9.630;2022-12-18T04:41:37;-7.60;99.90
19496;DHT22;9888;48.606;9.630;2022-12-18T04:44:04;-7.50;99.90
19496;DHT22;9888;48.606;9.630;2022-12-18T04:46:31;-7.60;99.90
19496;DHT22;9888;48.606;9.630;2022-12-18T04:48:58;-7.50;99.90
19496;DHT22;9888;48.606;9.630;2022-12-18T04:51:24;-7.50;99.90
19496;DHT22;9888;48.606;9.630;2022-12-18T04:53:51;-7.50;99.90
19496;DHT22;9888;48.606;9.630;2022-12-18T04:56:19;-7.60;99.90
19496;DHT22;9888;48.606;9.630;2022-12-18T04:58:46;-7.60;99.90
19496;DHT22;9888;48.606;9.630;2022-12-18T05:01:14;-7.50;99.90
19496;DHT22;9888;48.606;9.630;2022-12-18T05:03:42;-7.50;99.90
19496;DHT22;9888;48.606;9.630;2022-12-18T05:06:09;-7.50;99.90
19496;DHT22;9888;48.606;9.630;2022-12-18T05:08:36;-7.50;99.90
19496;DHT22;9888;48.606;9.630;2022-12-18T05:11:09;-7.50;99.90
19496;DHT22;9888;48.606;9.630;2022-12-18T05:13:36;-7.50;99.90
19496;DHT22;9888;48.606;9.630;2022-12-18T05:16:04;-7.50;99.90
19496;DHT22;9888;48.606;9.630;2022-12-18T05:18:32;-7.60;99.90
19496;DHT22;9888;48.606;9.630;2022-12-18T05:20:59;-7.50;99.90
19496;DHT22;9888;48.606;9.630;2022-12-18T05:23:26;-7.50;99.90
19496;DHT22;9888;48.606;9.630;2022-12-18T05:25:56;-7.50;99.90
19496;DHT22;9888;48.606;9.630;2022-12-18T05:28:25;-7.50;99.90
19496;DHT22;9888;48.606;9.630;2022-12-18T05:30:54;-7.50;99.90
19496;DHT22;9888;48.606;9.630;2022-12-18T05:33:23;-7.50;99.90
19496;DHT22;9888;48.606;9.630;2022-12-18T05:35:54;-7.50;99.90
19496;DHT22;9888;48.606;9.630;2022-12-18T05:38:22;-7.50;99.90
19496;DHT22;9888;48.606;9.630;2022-12-18T05:40:51;-7.50;99.90
19496;DHT22;9888;48.606;9.630;2022-12-18T05:43:19;-7.50;99.90
19496;DHT22;9888;48.606;9.630;2022-12-18T05:45:48;-7.60;99.90
19496;DHT22;9888;48.606;9.630;2022-12-18T05:48:16;-7.50;99.90
19496;DHT22;9888;48.606;9.630;2022-12-18T05:50:44;-7.60;99.90
19496;DHT22;9888;48.606;9.630;2022-12-18T05:53:16;-7.60;99.90
19496;DHT22;9888;48.606;9.630;2022-12-18T05:55:44;-7.60;99.90
19496;DHT22;9888;48.606;9.630;2022-12-18T05:58:12;-7.50;99.90
19496;DHT22;9888;48.606;9.630;2022-12-18T06:00:43;-7.50;99.90
19496;DHT22;9888;48.606;9.630;2022-12-18T06:03:11;-7.50;99.90
19496;DHT22;9888;48.606;9.630;2022-12-18T06:05:39;-7.50;99.90
19496;DHT22;9888;48.606;9.630;2022-12-18T06:08:07;-7.40;99.90
19496;DHT22;9888;48.606;9.630;2022-12-18T06:10:35;-7.40;99.90
19496;DHT22;9888;48.606;9.630;2022-12-18T06:13:03;-7.40;99.90
19496;DHT22;9888;48.606;9.630;2022-12-18T06:15:30;-7.50;99.90
19496;DHT22;9888;48.606;9.630;2022-12-18T06:17:57;-7.50;99.90
19496;DHT22;9888;48.606;9.630;2022-12-18T06:20:23;-7.50;99.90
19496;DHT22;9888;48.606;9.630;2022-12-18T06:22:50;-7.40;99.90
19496;DHT22;9888;48.606;9.630;2022-12-18T06:25:16;-7.40;99.90
19496;DHT22;9888;48.606;9.630;2022-12-18T06:27:43;-7.40;99.90
19496;DHT22;9888;48.606;9.630;2022-12-18T06:30:11;-7.40;99.90
19496;DHT22;9888;48.606;9.630;2022-12-18T06:32:39;-7.40;99.90
19496;DHT22;9888;48.606;9.630;2022-12-18T06:35:07;-7.40;99.90
19496;DHT22;9888;48.606;9.630;2022-12-18T06:37:34;-7.50;99.90
19496;DHT22;9888;48.606;9.630;2022-12-18T06:40:02;-7.50;99.90
19496;DHT22;9888;48.606;9.630;2022-12-18T06:42:29;-7.50;99.90
19496;DHT22;9888;48.606;9.630;2022-12-18T06:44:56;-7.50;99.90
19496;DHT22;9888;48.606;9.630;2022-12-18T06:47:23;-7.50;99.90
19496;DHT22;9888;48.606;9.630;2022-12-18T06:49:49;-7.50;99.90
19496;DHT22;9888;48.606;9.630;2022-12-18T06:52:18;-7.50;99.90
19496;DHT22;9888;48.606;9.630;2022-12-18T06:54:45;-7.50;99.90
19496;DHT22;9888;48.606;9.630;2022-12-18T06:57:12;-7.50;99.90
19496;DHT22;9888;48.606;9.630;2022-12-18T06:59:42;-7.50;99.90
19496;DHT22;9888;48.606;9.630;2022-12-18T07:02:12;-7.40;99.90
19496;DHT22;9888;48.606;9.630;2022-12-18T07:04:39;-7.40;99.90
19496;DHT22;9888;48.606;9.630;2022-12-18T07:07:07;-7.40;99.90
19496;DHT22;9888;48.606;9.630;2022-12-18T07:09:34;-7.40;99.90
19496;DHT22;9888;48.606;9.630;2022-12-18T07:12:01;-7.50;99.90
19496;DHT22;9888;48.606;9.630;2022-12-18T07:14:27;-7.40;99.90
19496;DHT22;9888;48.606;9.630;2022-12-18T07:16:55;-7.40;99.90
19496;DHT22;9888;48.606;9.630;2022-12-18T07:19:25;-7.50;99.90
19496;DHT22;9888;48.606;9.630;2022-12-18T07:21:56;-7.50;99.90
19496;DHT22;9888;48.606;9.630;2022-12-18T07:24:23;-7.50;99.90
19496;DHT22;9888;48.606;9.630;2022-12-18T07:26:50;-7.50;99.90
19496;DHT22;9888;48.606;9.630;2022-12-18T07:29:17;-7.60;99.90
19496;DHT22;9888;48.606;9.630;2022-12-18T07:31:44;-7.50;99.90
19496;DHT22;9888;48.606;9.630;2022-12-18T07:34:12;-7.60;99.90
19496;DHT22;9888;48.606;9.630;2022-12-18T07:36:40;-7.50;99.90
19496;DHT22;9888;48.606;9.630;2022-12-18T07:39:08;-7.50;99.90
19496;DHT22;9888;48.606;9.630;2022-12-18T07:41:34;-7.50;99.90
19496;DHT22;9888;48.606;9.630;2022-12-18T07:44:02;-7.50;99.90
19496;DHT22;9888;48.606;9.630;2022-12-18T07:46:29;-7.50;99.90
19496;DHT22;9888;48.606;9.630;2022-12-18T07:48:57;-7.50;99.90
19496;DHT22;9888;48.606;9.630;2022-12-18T07:51:24;-7.40;99.90
19496;DHT22;9888;48.606;9.630;2022-12-18T07:53:51;-7.40;99.90
19496;DHT22;9888;48.606;9.630;2022-12-18T07:56:21;-7.30;99.90
19496;DHT22;9888;48.606;9.630;2022-12-18T07:58:47;-7.30;99.90
19496;DHT22;9888;48.606;9.630;2022-12-18T08:01:15;-7.20;99.90
19496;DHT22;9888;48.606;9.630;2022-12-18T08:03:42;-7.10;99.90
19496;DHT22;9888;48.606;9.630;2022-12-18T08:06:09;-7.10;99.90
19496;DHT22;9888;48.606;9.630;2022-12-18T08:08:36;-7.10;99.90
19496;DHT22;9888;48.606;9.630;2022-12-18T08:11:03;-7.10;99.90
19496;DHT22;9888;48.606;9.630;2022-12-18T08:13:30;-7.10;99.90
19496;DHT22;9888;48.606;9.630;2022-12-18T08:15:59;-7.10;99.90
19496;DHT22;9888;48.606;9.630;2022-12-18T08:18:27;-7.10;99.90
19496;DHT22;9888;48.606;9.630;2022-12-18T08:20:55;-7.10;99.90
19496;DHT22;9888;48.606;9.630;2022-12-18T08:23:22;-7.00;99.90
19496;DHT22;9888;48.606;9.630;2022-12-18T08:25:49;-7.10;99.90
19496;DHT22;9888;48.606;9.630;2022-12-18T08:28:17;-7.00;99.90
19496;DHT22;9888;48.606;9.630;2022-12-18T08:30:44;-7.00;99.90
19496;DHT22;9888;48.606;9.630;2022-12-18T08:33:11;-7.00;99.90
19496;DHT22;9888;48.606;9.630;2022-12-18T08:35:38;-6.90;99.90
19496;DHT22;9888;48.606;9.630;2022-12-18T08:38:05;-6.80;99.90
19496;DHT22;9888;48.606;9.630;2022-12-18T08:40:32;-6.80;99.90
19496;DHT22;9888;48.606;9.630;2022-12-18T08:43:02;-6.80;99.90
19496;DHT22;9888;48.606;9.630;2022-12-18T08:45:47;-6.70;99.90
19496;DHT22;9888;48.606;9.630;2022-12-18T08:48:14;-6.70;99.90
19496;DHT22;9888;48.606;9.630;2022-12-18T08:50:42;-6.70;99.90
19496;DHT22;9888;48.606;9.630;2022-12-18T08:53:09;-6.70;99.90
19496;DHT22;9888;48.606;9.630;2022-12-18T08:55:36;-6.60;99.90
19496;DHT22;9888;48.606;9.630;2022-12-18T08:58:05;-6.50;99.90
19496;DHT22;9888;48.606;9.630;2022-12-18T09:00:35;-6.50;99.90
19496;DHT22;9888;48.606;9.630;2022-12-18T09:03:02;-6.50;99.90
19496;DHT22;9888;48.606;9.630;2022-12-18T09:05:30;-6.50;99.90
19496;DHT22;9888;48.606;9.630;2022-12-18T09:07:58;-6.30;99.90
19496;DHT22;9888;48.606;9.630;2022-12-18T09:10:26;-6.20;99.90
19496;DHT22;9888;48.606;9.630;2022-12-18T09:12:53;-6.10;99.90
19496;DHT22;9888;48.606;9.630;2022-12-18T09:15:20;-6.10;99.90
19496;DHT22;9888;48.606;9.630;2022-12-18T09:17:47;-5.90;99.90
19496;DHT22;9888;48.606;9.630;2022-12-18T09:20:16;-5.80;99.90
19496;DHT22;9888;48.606;9.630;2022-12-18T09:22:44;-5.60;99.90
19496;DHT22;9888;48.606;9.630;2022-12-18T09:25:11;-5.50;99.90
19496;DHT22;9888;48.606;9.630;2022-12-18T09:28:09;-5.40;99.90
19496;DHT22;9888;48.606;9.630;2022-12-18T09:30:41;-5.50;99.90
19496;DHT22;9888;48.606;9.630;2022-12-18T09:33:08;-5.40;99.90
19496;DHT22;9888;48.606;9.630;2022-12-18T09:35:43;-5.30;99.90
19496;DHT22;9888;48.606;9.630;2022-12-18T09:38:16;-5.20;99.90
19496;DHT22;9888;48.606;9.630;2022-12-18T09:40:52;-5.20;99.90
19496;DHT22;9888;48.606;9.630;2022-12-18T09:43:41;-5.00;99.90
19496;DHT22;9888;48.606;9.630;2022-12-18T09:46:14;-4.90;99.90
19496;DHT22;9888;48.606;9.630;2022-12-18T09:48:46;-4.70;99.90
19496;DHT22;9888;48.606;9.630;2022-12-18T09:51:17;-4.70;99.90
19496;DHT22;9888;48.606;9.630;2022-12-18T09:54:07;-4.60;99.90
19496;DHT22;9888;48.606;9.630;2022-12-18T09:56:41;-4.60;99.90
19496;DHT22;9888;48.606;9.630;2022-12-18T09:59:36;-4.60;99.90
19496;DHT22;9888;48.606;9.630;2022-12-18T10:02:20;-4.50;99.90
19496;DHT22;9888;48.606;9.630;2022-12-18T10:07:47;-4.30;99.90
19496;DHT22;9888;48.606;9.630;2022-12-18T10:10:52;-4.50;99.90
19496;DHT22;9888;48.606;9.630;2022-12-18T10:13:36;-4.60;99.90
19496;DHT22;9888;48.606;9.630;2022-12-18T10:19:09;-4.20;99.90
19496;DHT22;9888;48.606;9.630;2022-12-18T10:27:23;-4.20;99.90
19496;DHT22;9888;48.606;9.630;2022-12-18T10:29:52;-3.70;99.90
19496;DHT22;9888;48.606;9.630;2022-12-18T10:32:22;-3.50;99.90
19496;DHT22;9888;48.606;9.630;2022-12-18T10:34:52;-3.60;99.90
19496;DHT22;9888;48.606;9.630;2022-12-18T10:37:22;-3.80;99.90
19496;DHT22;9888;48.606;9.630;2022-12-18T10:40:14;-3.80;99.90
19496;DHT22;9888;48.606;9.630;2022-12-18T10:42:42;-4.00;99.90
19496;DHT22;9888;48.606;9.630;2022-12-18T10:45:17;-4.00;99.90
19496;DHT22;9888;48.606;9.630;2022-12-18T10:47:49;-4.20;99.90
19496;DHT22;9888;48.606;9.630;2022-12-18T10:50:24;-4.10;99.90
19496;DHT22;9888;48.606;9.630;2022-12-18T10:52:59;-4.00;99.90
19496;DHT22;9888;48.606;9.630;2022-12-18T10:55:46;-4.10;99.90
19496;DHT22;9888;48.606;9.630;2022-12-18T10:58:24;-4.00;99.90
19496;DHT22;9888;48.606;9.630;2022-12-18T11:01:17;-4.10;99.90
19496;DHT22;9888;48.606;9.630;2022-12-18T11:04:01;-4.00;99.90
19496;DHT22;9888;48.606;9.630;2022-12-18T11:06:32;-3.80;99.90
19496;DHT22;9888;48.606;9.630;2022-12-18T11:09:05;-3.70;99.90
19496;DHT22;9888;48.606;9.630;2022-12-18T11:14:58;-3.10;99.90
19496;DHT22;9888;48.606;9.630;2022-12-18T11:17:33;-2.90;99.90
19496;DHT22;9888;48.606;9.630;2022-12-18T11:20:26;-2.80;99.90
19496;DHT22;9888;48.606;9.630;2022-12-18T11:23:04;-2.70;99.90
19496;DHT22;9888;48.606;9.630;2022-12-18T11:25:33;-2.80;99.90
19496;DHT22;9888;48.606;9.630;2022-12-18T11:28:36;-2.90;99.90
19496;DHT22;9888;48.606;9.630;2022-12-18T11:31:19;-2.70;99.90
19496;DHT22;9888;48.606;9.630;2022-12-18T11:34:31;-2.80;99.90
19496;DHT22;9888;48.606;9.630;2022-12-18T11:36:51;-2.70;99.90
19496;DHT22;9888;48.606;9.630;2022-12-18T11:47:42;-2.70;99.90
19496;DHT22;9888;48.606;9.630;2022-12-18T11:50:14;-2.80;99.90
19496;DHT22;9888;48.606;9.630;2022-12-18T11:52:42;-2.80;99.90
19496;DHT22;9888;48.606;9.630;2022-12-18T11:55:13;-2.90;99.90
19496;DHT22;9888;48.606;9.630;2022-12-18T12:00:21;-3.20;99.90
19496;DHT22;9888;48.606;9.630;2022-12-18T12:08:31;-3.00;99.90
19496;DHT22;9888;48.606;9.630;2022-12-18T12:13:55;-3.00;99.90
19496;DHT22;9888;48.606;9.630;2022-12-18T12:16:43;-2.90;99.90
19496;DHT22;9888;48.606;9.630;2022-12-18T12:22:32;-2.90;99.90
19496;DHT22;9888;48.606;9.630;2022-12-18T12:25:13;-2.90;99.90
19496;DHT22;9888;48.606;9.630;2022-12-18T12:28:05;-3.10;99.90
19496;DHT22;9888;48.606;9.630;2022-12-18T12:33:36;-3.10;99.90
19496;DHT22;9888;48.606;9.630;2022-12-18T12:39:08;-3.00;99.90
19496;DHT22;9888;48.606;9.630;2022-12-18T12:41:40;-2.90;99.90
19496;DHT22;9888;48.606;9.630;2022-12-18T12:44:50;-2.80;99.90
19496;DHT22;9888;48.606;9.630;2022-12-18T12:47:32;-2.80;99.90
19496;DHT22;9888;48.606;9.630;2022-12-18T12:50:11;-2.80;99.90
19496;DHT22;9888;48.606;9.630;2022-12-18T12:52:50;-2.70;99.90
19496;DHT22;9888;48.606;9.630;2022-12-18T12:55:23;-2.60;99.90
19496;DHT22;9888;48.606;9.630;2022-12-18T13:04:57;-2.50;99.90
19496;DHT22;9888;48.606;9.630;2022-12-18T13:08:10;-2.50;99.90
19496;DHT22;9888;48.606;9.630;2022-12-18T13:13:11;-2.50;99.90
19496;DHT22;9888;48.606;9.630;2022-12-18T13:16:07;-2.60;99.90
19496;DHT22;9888;48.606;9.630;2022-12-18T13:18:35;-2.70;99.90
19496;DHT22;9888;48.606;9.630;2022-12-18T13:21:27;-2.70;99.90
19496;DHT22;9888;48.606;9.630;2022-12-18T13:23:55;-2.70;99.90
19496;DHT22;9888;48.606;9.630;2022-12-18T13:28:52;-2.70;99.90
19496;DHT22;9888;48.606;9.630;2022-12-18T13:34:26;-2.60;99.90
19496;DHT22;9888;48.606;9.630;2022-12-18T13:36:55;-2.70;99.90
19496;DHT22;9888;48.606;9.630;2022-12-18T13:39:32;-2.70;99.90
19496;DHT22;9888;48.606;9.630;2022-12-18T13:44:38;-2.70;99.90
19496;DHT22;9888;48.606;9.630;2022-12-18T13:47:32;-2.80;99.90
19496;DHT22;9888;48.606;9.630;2022-12-18T13:50:02;-2.90;99.90
19496;DHT22;9888;48.606;9.630;2022-12-18T13:52:37;-2.90;99.90
19496;DHT22;9888;48.606;9.630;2022-12-18T13:55:15;-2.80;99.90
19496;DHT22;9888;48.606;9.630;2022-12-18T13:57:43;-2.70;99.90
19496;DHT22;9888;48.606;9.630;2022-12-18T14:00:29;-2.70;99.90
19496;DHT22;9888;48.606;9.630;2022-12-18T14:02:57;-2.80;99.90
19496;DHT22;9888;48.606;9.630;2022-12-18T14:05:32;-2.90;99.90
19496;DHT22;9888;48.606;9.630;2022-12-18T14:08:15;-3.10;99.90
19496;DHT22;9888;48.606;9.630;2022-12-18T14:10:43;-3.10;99.90
19496;DHT22;9888;48.606;9.630;2022-12-18T14:13:20;-3.20;99.90
19496;DHT22;9888;48.606;9.630;2022-12-18T14:15:49;-3.30;99.90
19496;DHT22;9888;48.606;9.630;2022-12-18T14:18:33;-3.40;99.90
19496;DHT22;9888;48.606;9.630;2022-12-18T14:21:04;-3.50;99.90
19496;DHT22;9888;48.606;9.630;2022-12-18T14:23:39;-3.60;99.90
19496;DHT22;9888;48.606;9.630;2022-12-18T14:26:26;-3.60;99.90
19496;DHT22;9888;48.606;9.630;2022-12-18T14:28:59;-3.70;99.90
19496;DHT22;9888;48.606;9.630;2022-12-18T14:31:31;-3.80;99.90
19496;DHT22;9888;48.606;9.630;2022-12-18T14:33:58;-3.80;99.90
19496;DHT22;9888;48.606;9.630;2022-12-18T14:36:28;-3.90;99.90
19496;DHT22;9888;48.606;9.630;2022-12-18T14:38:59;-4.00;99.90
19496;DHT22;9888;48.606;9.630;2022-12-18T22:14:37;-4.40;99.90
19496;DHT22;9888;48.606;9.630;2022-12-18T22:17:04;-4.50;99.90
19496;DHT22;9888;48.606;9.630;2022-12-18T22:19:32;-4.50;99.90
19496;DHT22;9888;48.606;9.630;2022-12-18T22:22:29;-4.50;99.90
19496;DHT22;9888;48.606;9.630;2022-12-18T22:24:58;-4.50;99.90
19496;DHT22;9888;48.606;9.630;2022-12-18T22:27:27;-4.40;99.90
19496;DHT22;9888;48.606;9.630;2022-12-18T22:29:54;-4.40;99.90
19496;DHT22;9888;48.606;9.630;2022-12-18T22:32:41;-4.40;99.90
19496;DHT22;9888;48.606;9.630;2022-12-18T22:35:44;-4.40;99.90
19496;DHT22;9888;48.606;9.630;2022-12-18T22:38:12;-4.30;99.90
19496;DHT22;9888;48.606;9.630;2022-12-18T22:40:41;-4.40;99.90
19496;DHT22;9888;48.606;9.630;2022-12-18T22:43:10;-4.30;99.90
19496;DHT22;9888;48.606;9.630;2022-12-18T22:45:38;-4.30;99.90
19496;DHT22;9888;48.606;9.630;2022-12-18T22:48:05;-4.30;99.90
19496;DHT22;9888;48.606;9.630;2022-12-18T22:50:33;-4.20;99.90
19496;DHT22;9888;48.606;9.630;2022-12-18T22:53:03;-4.20;99.90
19496;DHT22;9888;48.606;9.630;2022-12-18T22:55:30;-4.20;99.90
19496;DHT22;9888;48.606;9.630;2022-12-18T22:58:24;-4.20;99.90
19496;DHT22;9888;48.606;9.630;2022-12-18T23:00:51;-4.20;99.90
19496;DHT22;9888;48.606;9.630;2022-12-18T23:03:18;-4.10;99.90
19496;DHT22;9888;48.606;9.630;2022-12-18T23:05:48;-4.10;99.90
19496;DHT22;9888;48.606;9.630;2022-12-18T23:08:21;-4.00;99.90
19496;DHT22;9888;48.606;9.630;2022-12-18T23:10:52;-4.00;99.90
19496;DHT22;9888;48.606;9.630;2022-12-18T23:13:19;-4.00;99.90
19496;DHT22;9888;48.606;9.630;2022-12-18T23:15:46;-3.90;99.90
19496;DHT22;9888;48.606;9.630;2022-12-18T23:18:13;-3.90;99.90
19496;DHT22;9888;48.606;9.630;2022-12-18T23:20:40;-3.90;99.90
19496;DHT22;9888;48.606;9.630;2022-12-18T23:23:08;-3.90;99.90
19496;DHT22;9888;48.606;9.630;2022-12-18T23:28:57;-3.70;99.90
19496;DHT22;9888;48.606;9.630;2022-12-18T23:31:28;-3.70;99.90
19496;DHT22;9888;48.606;9.630;2022-12-18T23:33:57;-3.60;99.90
19496;DHT22;9888;48.606;9.630;2022-12-18T23:36:38;-3.50;99.90
19496;DHT22;9888;48.606;9.630;2022-12-18T23:39:06;-3.50;99.90
19496;DHT22;9888;48.606;9.630;2022-12-18T23:41:33;-3.40;99.90
19496;DHT22;9888;48.606;9.630;2022-12-18T23:44:22;-3.40;99.90
19496;DHT22;9888;48.606;9.630;2022-12-18T23:46:50;-3.40;99.90
19496;DHT22;9888;48.606;9.630;2022-12-18T23:49:20;-3.40;99.90
19496;DHT22;9888;48.606;9.630;2022-12-18T23:51:48;-3.40;99.90
19496;DHT22;9888;48.606;9.630;2022-12-18T23:54:16;-3.40;99.90
19496;DHT22;9888;48.606;9.630;2022-12-18T23:56:48;-3.40;99.90
19496;DHT22;9888;48.606;9.630;2022-12-18T23:59:15;-3.40;99.90
